Terminal Aerodrome Forecast
Issued by NWS

Home | Current Version | Previous Version | Text Only | Print | Product List | Glossary On
Versions: 1 2 3 4 5 6 7 8 9 10 11 12 13 14 15 16 17
000
FTUS46 KSTO 271700
TAFSCK
TAF
KSCK 271735Z 2718/2818 00000KT 4SM HZ BKN200
     FM272000 27004KT P6SM SCT200
     FM280200 27004KT 4SM BR BKN200
      TEMPO 2813/2817 1SM BR=

USA.gov is the U.S. government's official web portal to all federal, state and local government web resources and services.